createdAt,value
2023-05-04T00:03:01.416Z,3.25
2023-05-04T00:08:02.725Z,4.03
2023-05-04T00:13:04.065Z,3.97
2023-05-04T00:18:05.456Z,3.75
2023-05-04T00:23:06.860Z,3.50
2023-05-04T00:28:08.143Z,3.80
2023-05-04T00:33:09.559Z,3.97
2023-05-04T00:38:11.326Z,3.53
2023-05-04T00:43:12.734Z,4.32
2023-05-04T00:48:14.196Z,3.97
2023-05-04T00:53:15.530Z,4.15
2023-05-04T00:58:17.193Z,4.00
2023-05-04T01:03:19.188Z,3.67
2023-05-04T01:08:25.790Z,3.97
2023-05-04T01:13:27.929Z,3.93
2023-05-04T01:18:29.314Z,4.13
2023-05-04T01:23:30.659Z,4.10
2023-05-04T01:29:10.340Z,3.93
2023-05-04T01:34:12.421Z,4.07
2023-05-04T01:39:13.713Z,4.23
2023-05-04T01:44:15.101Z,4.90
2023-05-04T01:49:16.437Z,4.22
2023-05-04T01:54:17.690Z,3.70
2023-05-04T01:59:18.951Z,4.32
2023-05-04T02:04:20.197Z,4.20
2023-05-04T02:09:21.539Z,4.05
2023-05-04T02:14:22.822Z,4.20
2023-05-04T02:19:24.124Z,4.10
2023-05-04T02:24:25.427Z,4.00
2023-05-04T02:29:26.715Z,4.17
2023-05-04T02:34:27.994Z,3.97
2023-05-04T02:39:29.294Z,3.90
2023-05-04T02:44:30.599Z,4.22
2023-05-04T02:49:31.916Z,4.70
2023-05-04T02:54:33.238Z,4.40
2023-05-04T02:59:34.525Z,4.20
2023-05-04T03:04:35.954Z,4.30
2023-05-04T03:09:37.501Z,4.43
2023-05-04T03:14:38.852Z,4.55
2023-05-04T03:19:40.164Z,4.27
2023-05-04T03:24:41.513Z,4.05
2023-05-04T03:29:42.843Z,4.03
2023-05-04T03:34:45.738Z,4.07
2023-05-04T03:39:47.111Z,4.82
2023-05-04T03:44:48.433Z,4.83
2023-05-04T03:49:49.726Z,4.28
2023-05-04T03:54:50.985Z,4.35
2023-05-04T03:59:52.326Z,4.47
2023-05-04T04:04:53.646Z,4.65
2023-05-04T04:09:54.942Z,5.00
2023-05-04T04:14:56.253Z,4.30
2023-05-04T04:19:57.576Z,5.70
2023-05-04T04:25:01.056Z,5.50
2023-05-04T04:30:04.351Z,4.88
2023-05-04T04:35:06.881Z,4.27
2023-05-04T04:40:08.921Z,5.60
2023-05-04T04:45:10.498Z,4.68
2023-05-04T04:50:11.817Z,5.03
2023-05-04T04:55:15.386Z,5.60
2023-05-04T05:00:17.002Z,4.47
2023-05-04T05:05:18.588Z,4.70
2023-05-04T05:10:21.133Z,4.85
2023-05-04T05:15:22.464Z,4.83
2023-05-04T05:20:24.049Z,5.07
2023-05-04T05:25:25.398Z,4.93
2023-05-04T05:30:28.224Z,5.00
2023-05-04T05:35:29.606Z,5.03
2023-05-04T05:40:31.205Z,5.80
2023-05-04T05:45:32.617Z,6.55
2023-05-04T05:50:34.227Z,5.73
2023-05-04T05:55:35.755Z,5.47
2023-05-04T06:00:37.028Z,6.60
2023-05-04T06:05:38.290Z,6.03
2023-05-04T06:10:39.666Z,6.90
2023-05-04T06:15:41.018Z,6.70
2023-05-04T06:20:42.288Z,6.97
2023-05-04T06:25:43.591Z,7.68
2023-05-04T06:30:45.042Z,7.13
2023-05-04T06:35:46.379Z,6.55
2023-05-04T06:40:48.144Z,7.00
2023-05-04T06:45:49.472Z,7.20
2023-05-04T06:50:50.992Z,7.10
2023-05-04T06:55:52.355Z,7.82
2023-05-04T07:00:53.746Z,7.30
2023-05-04T07:05:55.087Z,7.18
2023-05-04T07:10:56.885Z,7.30
2023-05-04T07:16:01.288Z,7.83
2023-05-04T07:21:21.682Z,7.00
2023-05-04T07:26:23.788Z,6.82
2023-05-04T07:31:25.124Z,8.83
2023-05-04T07:36:27.692Z,6.87
2023-05-04T07:41:29.122Z,7.65
2023-05-04T07:46:30.668Z,7.10
2023-05-04T07:51:32.013Z,6.80
2023-05-04T07:56:33.267Z,6.80
2023-05-04T08:01:34.637Z,6.40
2023-05-04T08:06:39.278Z,6.13
2023-05-04T08:11:40.729Z,7.00
2023-05-04T08:16:42.138Z,6.72
2023-05-04T08:21:43.478Z,5.97
2023-05-04T08:26:47.393Z,7.33
2023-05-04T08:31:57.973Z,6.93
2023-05-04T08:36:59.418Z,6.57
2023-05-04T08:42:02.170Z,7.70
2023-05-04T08:47:04.469Z,6.90
2023-05-04T08:52:07.055Z,5.85
2023-05-04T08:57:08.341Z,6.10
2023-05-04T09:02:11.444Z,7.00
2023-05-04T09:07:12.958Z,6.88
2023-05-04T09:12:14.226Z,6.90
2023-05-04T09:17:17.706Z,7.70
2023-05-04T09:22:19.299Z,6.82
2023-05-04T09:27:20.863Z,6.78
2023-05-04T09:32:22.227Z,6.67
2023-05-04T09:37:24.107Z,6.47
2023-05-04T09:42:26.690Z,7.20
2023-05-04T09:47:33.155Z,6.37
2023-05-04T09:52:34.744Z,6.22
2023-05-04T09:57:36.103Z,6.07
2023-05-04T10:02:38.967Z,6.10
2023-05-04T10:07:41.595Z,6.53
2023-05-04T10:12:44.162Z,6.03
2023-05-04T10:18:04.197Z,5.25
2023-05-04T10:23:24.275Z,5.00
2023-05-04T10:28:57.831Z,5.47
2023-05-04T10:33:59.206Z,5.00
2023-05-04T10:39:00.743Z,4.83
2023-05-04T10:44:02.833Z,4.75
2023-05-04T10:49:14.595Z,4.97
2023-05-04T10:54:21.774Z,4.83
2023-05-04T10:59:23.091Z,4.40
2023-05-04T11:04:24.479Z,4.65
2023-05-04T11:09:28.748Z,4.35
2023-05-04T11:14:30.370Z,4.50
2023-05-04T11:19:32.158Z,4.18
2023-05-04T11:24:43.943Z,4.53
2023-05-04T11:29:57.760Z,6.20
2023-05-04T11:34:59.171Z,4.85
2023-05-04T11:40:00.499Z,4.65
2023-05-04T11:45:02.766Z,3.90
2023-05-04T11:50:05.617Z,3.90
2023-05-04T11:55:10.196Z,3.50
2023-05-04T12:00:12.309Z,4.03
2023-05-04T12:05:14.212Z,4.00
2023-05-04T12:10:24.401Z,2.70
2023-05-04T12:15:29.717Z,2.97
2023-05-04T12:20:31.146Z,3.30
2023-05-04T12:25:32.436Z,3.20
2023-05-04T12:30:36.702Z,3.30
2023-05-04T12:35:38.090Z,3.33
2023-05-04T12:40:39.644Z,3.33
2023-05-04T12:45:41.009Z,3.95
2023-05-04T12:50:45.528Z,3.30
2023-05-04T12:55:46.978Z,3.03
2023-05-04T13:00:48.269Z,4.05
2023-05-04T13:05:49.871Z,3.10
2023-05-04T13:10:51.421Z,3.50
2023-05-04T13:15:52.772Z,3.00
2023-05-04T13:20:54.578Z,3.50
2023-05-04T13:25:55.930Z,2.87
2023-05-04T13:30:57.623Z,3.10
2023-05-04T13:35:59.164Z,3.50
2023-05-04T13:41:00.565Z,2.88
2023-05-04T13:46:04.800Z,3.27
2023-05-04T13:51:06.157Z,3.53
2023-05-04T13:56:07.514Z,3.50
2023-05-04T14:01:09.170Z,3.20
2023-05-04T14:06:11.255Z,3.20
2023-05-04T14:11:15.608Z,3.08
2023-05-04T14:16:16.982Z,3.63
2023-05-04T14:21:18.258Z,3.03
2023-05-04T14:26:19.537Z,3.08
2023-05-04T14:31:21.067Z,3.13
2023-05-04T14:36:22.394Z,2.73
2023-05-04T14:41:23.752Z,3.30
2023-05-04T14:46:25.754Z,3.53
2023-05-04T14:51:27.543Z,3.17
2023-05-04T14:56:28.870Z,3.00
2023-05-04T15:01:30.218Z,3.10
2023-05-04T15:06:33.834Z,3.07
2023-05-04T15:11:35.150Z,2.97
2023-05-04T15:16:36.683Z,3.63
2023-05-04T15:21:38.116Z,3.22
2023-05-04T15:26:39.899Z,3.47
2023-05-04T15:31:41.464Z,3.45
2023-05-04T15:36:42.871Z,3.00
2023-05-04T15:41:44.264Z,3.47
2023-05-04T15:46:45.716Z,3.08
2023-05-04T15:51:47.064Z,2.80
2023-05-04T15:56:48.901Z,2.97
2023-05-04T16:01:50.212Z,3.30
2023-05-04T16:06:51.546Z,2.70
2023-05-04T16:11:52.854Z,3.17
2023-05-04T16:16:54.226Z,3.20
2023-05-04T16:21:55.568Z,3.55
2023-05-04T16:26:56.862Z,3.45
2023-05-04T16:31:59.917Z,3.07
2023-05-04T16:37:01.897Z,3.55
2023-05-04T16:42:03.671Z,3.75
2023-05-04T16:47:05.032Z,3.30
2023-05-04T16:52:06.327Z,3.93
2023-05-04T16:57:07.656Z,4.05
2023-05-04T17:02:09.554Z,3.25
2023-05-04T17:07:11.113Z,3.33
2023-05-04T17:12:12.501Z,3.80
2023-05-04T17:17:13.776Z,3.60
2023-05-04T17:22:15.220Z,3.37
2023-05-04T17:27:16.592Z,3.90
2023-05-04T17:32:17.937Z,3.70
2023-05-04T17:37:19.399Z,3.67
2023-05-04T17:42:20.722Z,3.23
2023-05-04T17:47:22.010Z,3.72
2023-05-04T17:52:23.267Z,3.38
2023-05-04T17:57:24.554Z,3.07
2023-05-04T18:02:26.106Z,3.00
2023-05-04T18:07:27.482Z,3.30
2023-05-04T18:12:28.832Z,3.13
2023-05-04T18:17:30.356Z,3.83
2023-05-04T18:22:31.664Z,4.22
2023-05-04T18:27:33.657Z,3.80
2023-05-04T18:32:35.530Z,3.87
2023-05-04T18:37:36.840Z,4.03
2023-05-04T18:42:38.183Z,3.40
2023-05-04T18:47:39.488Z,3.83
2023-05-04T18:52:40.799Z,3.97
2023-05-04T18:57:42.087Z,3.50
2023-05-04T19:02:43.446Z,3.57
2023-05-04T19:07:44.775Z,3.70
2023-05-04T19:12:46.310Z,3.72
2023-05-04T19:17:47.671Z,3.63
2023-05-04T19:22:48.947Z,4.30
2023-05-04T19:27:50.261Z,3.75
2023-05-04T19:32:51.636Z,5.60
2023-05-04T19:37:52.921Z,3.73
2023-05-04T19:42:54.232Z,3.92
2023-05-04T19:47:55.646Z,4.05
2023-05-04T19:52:57.082Z,3.80
2023-05-04T19:57:58.557Z,3.67
2023-05-04T20:03:00.010Z,3.80
2023-05-04T20:08:04.167Z,4.13
2023-05-04T20:13:06.866Z,3.80
2023-05-04T20:18:08.332Z,4.00
2023-05-04T20:23:09.644Z,4.63
2023-05-04T20:28:10.921Z,4.80
2023-05-04T20:33:12.308Z,3.78
2023-05-04T20:38:14.095Z,3.92
2023-05-04T20:43:15.411Z,4.70
2023-05-04T20:48:16.762Z,4.03
2023-05-04T20:53:18.072Z,4.18
2023-05-04T20:58:20.227Z,4.17
2023-05-04T21:03:21.584Z,4.82
2023-05-04T21:08:23.038Z,4.72
2023-05-04T21:13:24.297Z,4.40
2023-05-04T21:18:25.630Z,4.60
2023-05-04T21:23:26.997Z,4.60
2023-05-04T21:28:28.681Z,4.37
2023-05-04T21:33:29.964Z,4.57
2023-05-04T21:38:31.251Z,4.90
2023-05-04T21:43:32.570Z,5.53
2023-05-04T21:48:34.509Z,4.53
2023-05-04T21:53:35.873Z,5.70
2023-05-04T21:58:39.573Z,5.27
2023-05-04T22:03:40.932Z,5.50
2023-05-04T22:08:42.279Z,4.80
2023-05-04T22:13:43.567Z,5.30
2023-05-04T22:18:44.815Z,5.50
2023-05-04T22:23:46.141Z,5.03
2023-05-04T22:28:47.422Z,4.60
2023-05-04T22:33:48.702Z,5.18
2023-05-04T22:38:52.846Z,5.10
2023-05-04T22:43:54.097Z,5.03
2023-05-04T22:48:55.461Z,5.57
2023-05-04T22:53:56.741Z,5.23
2023-05-04T22:58:58.408Z,5.17
2023-05-04T23:03:59.776Z,5.30
2023-05-04T23:09:04.537Z,5.17
2023-05-04T23:14:06.064Z,5.33
2023-05-04T23:19:07.371Z,4.63
2023-05-04T23:24:08.763Z,5.00
2023-05-04T23:29:10.042Z,5.33
2023-05-04T23:34:11.482Z,5.07
2023-05-04T23:39:12.733Z,4.90
2023-05-04T23:44:14.054Z,5.30
2023-05-04T23:49:15.698Z,5.28
2023-05-04T23:54:16.957Z,4.87
2023-05-04T23:59:18.228Z,4.90
